Time;durP1;ratioP1;P1;durP2;ratioP2;P2;SDS_P1;SDS_P2;PMS_P1;PMS_P2;Temp;Humidity;BMP_temperature;BMP_pressure;BME280_temperature;BME280_humidity;BME280_pressure;Samples;Min_cycle;Max_cycle;Signal;HPM_P1;HPM_P2
2023/05/07 00:00:22;;;;;;;2.60;1.70;;;;;;;13.96;92.12;99485.44;5071368;28;20211;-75
2023/05/07 00:02:50;;;;;;;3.63;1.60;;;;;;;14.06;91.98;99476.06;5071101;28;20217;-76
2023/05/07 00:05:17;;;;;;;1.93;1.60;;;;;;;14.02;92.11;99490.91;5071373;28;20202;-74
2023/05/07 00:07:44;;;;;;;2.13;1.50;;;;;;;14.10;92.95;99487.72;5071565;28;20652;-76
2023/05/07 00:10:12;;;;;;;2.80;1.77;;;;;;;13.95;92.92;99491.53;5071007;28;20764;-75
2023/05/07 00:12:39;;;;;;;4.77;1.63;;;;;;;13.90;93.83;99485.91;5070875;28;20234;-75
2023/05/07 00:15:07;;;;;;;2.57;1.80;;;;;;;13.93;93.44;99490.81;5071101;28;20197;-75
2023/05/07 00:17:34;;;;;;;4.20;1.73;;;;;;;13.99;93.53;99485.19;5070620;28;20289;-75
2023/05/07 00:20:03;;;;;;;2.03;1.53;;;;;;;13.91;94.48;99478.09;5070966;28;20215;-75
2023/05/07 00:22:32;;;;;;;2.00;1.70;;;;;;;13.90;95.11;99478.22;5070875;28;20237;-75
2023/05/07 00:24:59;;;;;;;4.43;2.10;;;;;;;13.92;94.23;99478.91;5070916;28;20205;-75
2023/05/07 00:27:26;;;;;;;2.33;1.60;;;;;;;13.93;94.58;99476.22;5070717;28;20687;-75
2023/05/07 00:29:53;;;;;;;3.27;1.57;;;;;;;13.89;94.69;99474.03;5070795;28;20749;-75
2023/05/07 00:32:19;;;;;;;3.83;2.00;;;;;;;13.88;94.00;99478.34;5070919;28;20205;-76
2023/05/07 00:34:46;;;;;;;4.07;1.60;;;;;;;13.91;93.91;99475.53;5070616;28;20212;-76
2023/05/07 00:37:14;;;;;;;4.50;1.63;;;;;;;13.95;92.75;99473.53;5070398;28;20209;-75
2023/05/07 00:39:41;;;;;;;2.17;1.60;;;;;;;14.04;93.04;99483.06;5070603;28;20206;-75
2023/05/07 00:42:08;;;;;;;1.67;1.40;;;;;;;14.06;91.17;99470.91;5070677;28;20205;-75
2023/05/07 00:44:35;;;;;;;2.30;1.80;;;;;;;14.12;91.69;99480.69;5070613;28;20280;-75
2023/05/07 00:47:04;;;;;;;2.90;1.70;;;;;;;14.22;92.04;99486.75;5070366;28;20682;-75
2023/05/07 00:49:39;;;;;;;2.73;1.20;;;;;;;14.17;92.36;99481.16;5070307;28;20457;-75
2023/05/07 00:52:07;;;;;;;2.70;1.73;;;;;;;14.22;92.23;99476.47;5070531;28;20297;-74
2023/05/07 00:54:37;;;;;;;2.13;1.60;;;;;;;14.17;91.52;99476.00;5070250;28;20250;-75
2023/05/07 00:57:04;;;;;;;2.07;1.57;;;;;;;14.12;91.77;99472.97;5070325;28;20638;-74
2023/05/07 00:59:32;;;;;;;3.03;1.83;;;;;;;13.95;92.46;99479.47;5070173;28;20260;-75
2023/05/07 01:01:59;;;;;;;2.07;1.57;;;;;;;13.90;91.33;99471.31;5070311;28;20194;-75
2023/05/07 01:04:27;;;;;;;2.93;1.77;;;;;;;13.89;91.23;99479.16;5069961;28;20218;-75
2023/05/07 01:06:56;;;;;;;2.53;1.77;;;;;;;13.91;91.06;99478.09;5069925;28;20646;-75
2023/05/07 01:09:24;;;;;;;2.63;1.83;;;;;;;13.96;91.07;99480.28;5070286;28;20241;-75
2023/05/07 01:11:53;;;;;;;2.70;1.80;;;;;;;14.05;90.90;99469.28;5069869;28;20214;-75
2023/05/07 01:14:21;;;;;;;2.30;1.60;;;;;;;14.09;90.55;99470.66;5069968;28;20227;-75
2023/05/07 01:16:48;;;;;;;3.33;1.53;;;;;;;14.18;90.28;99469.09;5070007;28;20192;-75
2023/05/07 01:19:17;;;;;;;1.90;1.50;;;;;;;14.06;91.38;99470.91;5070144;28;20249;-74
2023/05/07 01:21:47;;;;;;;2.60;1.70;;;;;;;13.93;92.60;99465.94;5069802;28;20195;-75
2023/05/07 01:24:15;;;;;;;2.07;1.70;;;;;;;13.83;92.68;99467.63;5070069;28;20223;-75
2023/05/07 01:26:44;;;;;;;2.53;1.73;;;;;;;13.87;92.99;99465.59;5069726;28;20667;-75
2023/05/07 01:29:11;;;;;;;2.17;1.80;;;;;;;13.89;92.83;99463.75;5068844;28;20279;-75
2023/05/07 01:31:40;;;;;;;4.90;2.07;;;;;;;13.66;93.02;99453.53;5069938;28;20674;-75
2023/05/07 01:34:09;;;;;;;2.33;1.60;;;;;;;13.52;94.88;99454.59;5070267;28;20217;-75
2023/05/07 01:36:39;;;;;;;3.17;2.10;;;;;;;13.51;95.18;99454.75;5069689;28;20247;-75
2023/05/07 01:39:07;;;;;;;2.40;1.73;;;;;;;13.53;95.23;99455.44;5069637;28;20219;-75
2023/05/07 01:41:36;;;;;;;3.57;2.00;;;;;;;13.48;95.25;99454.97;5069858;28;20294;-76
2023/05/07 01:44:04;;;;;;;2.53;1.70;;;;;;;13.45;94.79;99444.94;5069408;28;20251;-75
2023/05/07 01:46:33;;;;;;;2.37;1.90;;;;;;;13.59;94.55;99457.53;5069614;28;20221;-75
2023/05/07 01:49:00;;;;;;;2.00;1.43;;;;;;;13.55;95.70;99450.97;5069478;28;20221;-76
2023/05/07 01:51:27;;;;;;;4.80;2.00;;;;;;;13.54;95.60;99452.75;5069535;28;20244;-75
2023/05/07 01:53:54;;;;;;;1.20;1.10;;;;;;;13.46;96.13;99451.72;5069564;28;20221;-75
2023/05/07 01:56:21;;;;;;;3.00;2.07;;;;;;;13.38;96.62;99448.91;5069304;28;20196;-75
2023/05/07 01:58:51;;;;;;;4.07;2.10;;;;;;;13.41;95.42;99440.97;5069687;28;20701;-75
2023/05/07 02:01:18;;;;;;;3.03;1.50;;;;;;;13.43;96.11;99445.06;5069768;28;20640;-75
2023/05/07 02:03:45;;;;;;;3.27;2.13;;;;;;;13.36;96.57;99446.47;5069296;28;20227;-75
2023/05/07 02:06:12;;;;;;;2.87;1.80;;;;;;;13.33;96.74;99437.25;5069312;28;20262;-75
2023/05/07 02:08:39;;;;;;;2.83;2.03;;;;;;;13.41;96.25;99435.84;5069409;28;20269;-75
2023/05/07 02:11:06;;;;;;;2.80;1.87;;;;;;;13.38;95.21;99439.50;5069225;28;20237;-75
2023/05/07 02:13:34;;;;;;;1.67;1.47;;;;;;;13.47;94.92;99443.91;5068997;28;20237;-75
2023/05/07 02:16:03;;;;;;;2.50;1.67;;;;;;;13.31;95.74;99439.13;5069406;28;20244;-75
2023/05/07 02:18:30;;;;;;;2.40;1.87;;;;;;;13.29;96.25;99435.88;5069304;28;20474;-75
2023/05/07 02:20:57;;;;;;;3.10;1.77;;;;;;;13.23;96.32;99438.88;5069324;28;20206;-75
2023/05/07 02:23:24;;;;;;;3.00;1.83;;;;;;;13.10;96.33;99439.00;5069332;28;20225;-75
2023/05/07 02:25:50;;;;;;;2.63;1.70;;;;;;;13.17;95.69;99439.34;5069340;28;20214;-75
2023/05/07 02:28:17;;;;;;;2.53;1.50;;;;;;;13.18;96.78;99437.59;5069335;28;20231;-75
2023/05/07 02:30:44;;;;;;;2.37;1.50;;;;;;;13.13;96.78;99440.53;5069064;28;20229;-75
2023/05/07 02:33:13;;;;;;;2.40;1.90;;;;;;;13.01;96.83;99436.34;5069293;28;20224;-76
2023/05/07 02:35:40;;;;;;;1.80;1.40;;;;;;;13.06;96.80;99434.22;5069315;28;20283;-75
2023/05/07 02:38:07;;;;;;;3.50;1.70;;;;;;;13.16;96.44;99432.59;5069007;28;20219;-75
2023/05/07 02:40:38;;;;;;;2.13;1.53;;;;;;;13.33;94.84;99431.31;5069904;28;20216;-75
2023/05/07 02:43:05;;;;;;;2.53;1.67;;;;;;;13.26;94.08;99430.97;5073113;28;20525;-75
2023/05/07 02:45:32;;;;;;;1.57;1.40;;;;;;;13.23;93.63;99431.16;5072927;28;20201;-75
2023/05/07 02:47:59;;;;;;;2.60;1.80;;;;;;;13.22;93.46;99439.81;5072943;28;20225;-75
2023/05/07 02:50:27;;;;;;;3.13;1.77;;;;;;;12.96;93.32;99441.00;5072552;28;20235;-76
2023/05/07 02:52:55;;;;;;;3.03;1.77;;;;;;;12.90;92.99;99440.53;5072908;28;20289;-76
2023/05/07 02:55:22;;;;;;;2.37;1.73;;;;;;;12.75;93.38;99444.28;5072724;28;20195;-76
2023/05/07 02:57:48;;;;;;;2.03;1.43;;;;;;;12.76;93.18;99438.19;5072794;28;20227;-75
2023/05/07 03:00:17;;;;;;;2.43;1.33;;;;;;;12.82;92.84;99442.88;5072811;28;20207;-75
2023/05/07 03:02:44;;;;;;;1.80;1.50;;;;;;;12.73;92.51;99443.56;5072636;28;20219;-75
2023/05/07 03:05:11;;;;;;;1.60;1.40;;;;;;;12.69;92.62;99442.16;5072475;28;20582;-75
2023/05/07 03:07:40;;;;;;;2.07;1.20;;;;;;;12.60;93.48;99448.81;5072440;28;20254;-76
2023/05/07 03:10:08;;;;;;;2.13;1.33;;;;;;;12.65;93.23;99448.44;5072674;28;20219;-75
2023/05/07 03:12:35;;;;;;;1.80;1.43;;;;;;;12.54;94.21;99439.00;5072115;28;20251;-75
2023/05/07 03:15:02;;;;;;;2.83;1.73;;;;;;;12.54;94.30;99438.19;5072206;28;20201;-75
2023/05/07 03:17:29;;;;;;;2.33;1.40;;;;;;;12.38;95.27;99443.63;5072157;28;20598;-75
2023/05/07 03:19:56;;;;;;;2.40;1.87;;;;;;;12.39;95.36;99440.97;5072223;28;20202;-76
2023/05/07 03:22:22;;;;;;;1.43;1.27;;;;;;;12.19;96.56;99442.44;5071855;28;20210;-75
2023/05/07 03:24:51;;;;;;;2.00;1.47;;;;;;;12.24;96.90;99442.88;5072070;28;20571;-74
2023/05/07 03:27:17;;;;;;;1.53;1.37;;;;;;;12.39;96.31;99440.97;5072339;28;20202;-75
2023/05/07 03:29:44;;;;;;;2.27;1.33;;;;;;;12.26;96.31;99444.53;5071891;28;20199;-75
2023/05/07 03:32:11;;;;;;;3.83;2.03;;;;;;;12.24;96.23;99447.22;5071929;28;20194;-76
2023/05/07 03:34:38;;;;;;;1.70;1.37;;;;;;;12.21;96.29;99452.56;5071815;28;20269;-76
2023/05/07 03:37:05;;;;;;;5.27;2.00;;;;;;;12.23;96.66;99458.41;5072353;28;20215;-75
2023/05/07 03:39:31;;;;;;;3.00;1.83;;;;;;;12.25;97.13;99448.84;5071652;28;20211;-75
2023/05/07 03:42:00;;;;;;;3.13;2.00;;;;;;;12.15;97.87;99453.00;5072024;28;21039;-76
2023/05/07 03:44:27;;;;;;;3.07;1.60;;;;;;;12.18;96.95;99458.72;5071809;28;20695;-76
2023/05/07 03:46:55;;;;;;;2.20;1.43;;;;;;;12.28;97.24;99448.63;5071840;28;20693;-75
2023/05/07 03:49:22;;;;;;;2.27;1.70;;;;;;;12.37;96.10;99447.13;5071552;28;20707;-76
2023/05/07 03:51:48;;;;;;;1.80;1.40;;;;;;;12.44;96.12;99450.88;5070724;28;20242;-76
2023/05/07 03:54:15;;;;;;;2.50;1.50;;;;;;;12.60;95.84;99448.00;5071419;28;20704;-75
2023/05/07 03:56:42;;;;;;;2.07;1.77;;;;;;;12.71;96.75;99455.69;5071424;28;20203;-76
2023/05/07 03:59:10;;;;;;;2.40;1.77;;;;;;;12.83;95.09;99453.97;5071166;28;20238;-76
2023/05/07 04:01:37;;;;;;;2.23;1.40;;;;;;;13.02;96.19;99461.88;5071706;28;20195;-76
2023/05/07 04:04:04;;;;;;;2.33;1.70;;;;;;;13.06;94.91;99465.88;5071337;28;20219;-76
2023/05/07 04:06:31;;;;;;;2.03;1.43;;;;;;;12.97;96.19;99458.03;5071315;28;20558;-75
2023/05/07 04:08:58;;;;;;;1.30;1.20;;;;;;;12.98;96.35;99467.38;5071175;28;20249;-76
2023/05/07 04:11:25;;;;;;;5.10;1.50;;;;;;;13.07;96.23;99469.25;5070990;28;20235;-76
2023/05/07 04:13:52;;;;;;;1.87;1.40;;;;;;;13.11;96.54;99473.19;5071136;28;20235;-76
2023/05/07 04:16:20;;;;;;;1.70;1.43;;;;;;;13.14;97.12;99483.22;5071195;28;20210;-76
2023/05/07 04:18:47;;;;;;;2.57;1.80;;;;;;;13.12;97.87;99479.97;5071256;28;20223;-76
2023/05/07 04:21:17;;;;;;;3.13;2.00;;;;;;;13.32;98.33;99478.47;5071158;28;20220;-76
2023/05/07 04:23:43;;;;;;;1.60;1.43;;;;;;;13.48;97.45;99475.53;5070618;28;20343;-76
2023/05/07 04:26:10;;;;;;;3.30;1.87;;;;;;;13.67;97.25;99486.00;5070824;28;20205;-75
2023/05/07 04:28:37;;;;;;;2.57;1.57;;;;;;;13.73;97.31;99485.53;5070835;28;20219;-76
2023/05/07 04:31:04;;;;;;;2.87;1.90;;;;;;;13.93;96.18;99491.66;5070777;28;20654;-75
2023/05/07 04:33:33;;;;;;;3.17;1.93;;;;;;;14.15;96.57;99498.44;5070652;28;20255;-75
2023/05/07 04:36:02;;;;;;;3.13;1.40;;;;;;;14.39;96.75;99492.25;5070595;28;20221;-76
2023/05/07 04:38:29;;;;;;;5.60;2.23;;;;;;;14.69;95.22;99502.66;5070489;28;20288;-75
2023/05/07 04:40:56;;;;;;;3.30;2.23;;;;;;;14.89;94.01;99506.16;5070597;28;20567;-76
2023/05/07 04:43:23;;;;;;;21.27;8.97;;;;;;;14.96;91.64;99503.88;5070211;28;20284;-75
2023/05/07 04:45:51;;;;;;;8.33;4.83;;;;;;;15.24;91.15;99509.25;5070669;28;20605;-75
2023/05/07 04:48:19;;;;;;;9.60;4.30;;;;;;;15.39;89.78;99513.13;5070401;28;20229;-75
2023/05/07 04:50:48;;;;;;;4.03;2.43;;;;;;;15.42;89.25;99512.00;5070462;28;20658;-75
2023/05/07 04:53:15;;;;;;;12.07;4.33;;;;;;;15.60;90.74;99516.41;5070250;28;20219;-75
2023/05/07 04:55:42;;;;;;;3.43;2.20;;;;;;;15.86;88.94;99515.97;5070228;28;20199;-75
2023/05/07 04:58:09;;;;;;;3.10;2.00;;;;;;;16.07;89.52;99514.06;5070679;28;20228;-76
2023/05/07 05:00:36;;;;;;;4.23;1.93;;;;;;;16.11;86.38;99514.59;5070173;28;20595;-76
2023/05/07 05:03:03;;;;;;;32.40;13.10;;;;;;;16.35;88.03;99524.53;5069976;28;20228;-75
2023/05/07 05:05:30;;;;;;;11.33;6.03;;;;;;;16.69;88.15;99522.28;5070484;28;20202;-76
2023/05/07 05:07:58;;;;;;;10.30;5.40;;;;;;;17.00;86.26;99516.13;5069855;28;20603;-76
2023/05/07 05:10:25;;;;;;;15.23;6.50;;;;;;;17.29;83.64;99522.00;5069904;28;20201;-75
2023/05/07 05:12:51;;;;;;;8.63;2.30;;;;;;;17.33;81.82;99528.47;5069796;28;20314;-76
2023/05/07 05:15:18;;;;;;;6.20;1.97;;;;;;;17.31;81.16;99520.09;5069887;28;20195;-75
2023/05/07 05:17:45;;;;;;;2.33;1.83;;;;;;;17.27;79.92;99517.91;5069671;28;20221;-76
2023/05/07 05:20:12;;;;;;;2.67;1.77;;;;;;;17.41;82.14;99523.41;5070062;28;20207;-75
2023/05/07 05:22:39;;;;;;;3.07;2.10;;;;;;;17.66;79.88;99518.53;5069711;28;20229;-75
2023/05/07 05:25:08;;;;;;;2.03;1.70;;;;;;;17.93;81.94;99522.06;5069820;28;20208;-75
2023/05/07 05:27:35;;;;;;;1.93;1.60;;;;;;;17.97;76.58;99525.97;5069705;28;20569;-76
2023/05/07 05:30:02;;;;;;;3.60;1.97;;;;;;;18.00;82.13;99520.50;5069854;28;20197;-77
2023/05/07 05:32:29;;;;;;;1.67;1.50;;;;;;;17.86;76.55;99514.88;5069755;28;20234;-76
2023/05/07 05:34:56;;;;;;;2.73;1.97;;;;;;;17.98;78.44;99512.91;5070140;28;20197;-76
2023/05/07 05:37:23;;;;;;;1.80;1.57;;;;;;;18.38;73.36;99515.97;5069601;28;20593;-75
2023/05/07 05:39:50;;;;;;;1.57;1.47;;;;;;;18.44;71.21;99518.78;5069789;28;20584;-75
2023/05/07 05:42:18;;;;;;;2.33;1.50;;;;;;;18.64;70.12;99513.38;5069693;28;20213;-76
2023/05/07 05:44:45;;;;;;;3.27;1.57;;;;;;;18.48;67.17;99519.28;5069369;28;20206;-76
2023/05/07 05:47:11;;;;;;;2.60;1.83;;;;;;;18.51;71.59;99514.63;5069884;28;20619;-76
2023/05/07 05:49:38;;;;;;;1.50;1.30;;;;;;;19.01;69.59;99526.09;5069805;28;20719;-75
2023/05/07 05:52:05;;;;;;;2.77;1.60;;;;;;;18.44;65.05;99523.13;5069285;28;20236;-75
2023/05/07 05:54:32;;;;;;;1.43;1.27;;;;;;;18.58;66.82;99525.16;5069414;28;20222;-75
2023/05/07 05:56:59;;;;;;;1.57;1.20;;;;;;;18.76;63.89;99533.75;5069860;28;20208;-76
2023/05/07 05:59:27;;;;;;;2.20;1.63;;;;;;;18.97;62.86;99530.00;5069335;28;20217;-76
2023/05/07 06:01:54;;;;;;;6.60;1.40;;;;;;;18.82;60.41;99536.69;5069433;28;20196;-76
2023/05/07 06:04:21;;;;;;;1.77;1.40;;;;;;;18.68;60.16;99536.25;5069764;28;20748;-75
2023/05/07 06:06:47;;;;;;;1.37;1.27;;;;;;;18.85;60.00;99541.56;5069697;28;20201;-75
2023/05/07 06:09:14;;;;;;;2.00;1.50;;;;;;;18.74;58.94;99535.69;5069319;28;20232;-75
2023/05/07 06:11:41;;;;;;;2.60;1.57;;;;;;;18.54;59.33;99536.81;5069116;28;20247;-75
2023/05/07 06:14:08;;;;;;;1.83;1.27;;;;;;;18.63;57.98;99533.31;5069469;28;20608;-75
2023/05/07 06:16:37;;;;;;;1.40;1.20;;;;;;;18.92;60.00;99537.41;5072009;28;20208;-75
2023/05/07 06:19:04;;;;;;;1.93;1.30;;;;;;;19.22;57.78;99547.25;5073527;28;20220;-76
2023/05/07 06:21:31;;;;;;;1.80;1.40;;;;;;;19.49;58.62;99540.25;5073264;28;20224;-75
2023/05/07 06:23:58;;;;;;;1.73;1.30;;;;;;;19.80;56.77;99548.31;5073122;28;20232;-76
2023/05/07 06:26:25;;;;;;;1.23;1.13;;;;;;;19.84;58.05;99544.44;5073009;28;20205;-74
2023/05/07 06:28:51;;;;;;;1.90;1.30;;;;;;;20.19;55.90;99537.34;5072968;28;20279;-76
2023/05/07 06:31:21;;;;;;;1.53;1.43;;;;;;;20.30;57.27;99538.78;5073233;28;20610;-75
2023/05/07 06:33:49;;;;;;;1.40;1.30;;;;;;;19.84;57.02;99541.03;5073008;28;20228;-76
2023/05/07 06:36:16;;;;;;;1.70;1.23;;;;;;;20.41;56.52;99541.06;5072918;28;20646;-76
2023/05/07 06:38:43;;;;;;;1.87;1.47;;;;;;;19.57;53.34;99537.66;5072801;28;20226;-76
2023/05/07 06:41:10;;;;;;;1.50;1.30;;;;;;;19.25;56.74;99538.38;5073143;28;20203;-76
2023/05/07 06:43:36;;;;;;;1.40;1.20;;;;;;;19.88;55.48;99540.53;5072585;28;20236;-76
2023/05/07 06:46:03;;;;;;;1.43;1.23;;;;;;;19.91;53.33;99544.59;5072649;28;20679;-76
2023/05/07 06:48:30;;;;;;;4.10;1.30;;;;;;;20.26;54.31;99542.69;5072936;28;20225;-76
2023/05/07 06:50:58;;;;;;;1.83;1.30;;;;;;;20.97;56.21;99541.16;5072602;28;20198;-76
2023/05/07 06:53:25;;;;;;;1.33;1.10;;;;;;;21.51;51.89;99543.13;5072399;28;20228;-76
2023/05/07 06:55:52;;;;;;;1.87;1.30;;;;;;;21.73;51.28;99544.97;5072617;28;20198;-76
2023/05/07 06:58:19;;;;;;;1.97;1.43;;;;;;;22.03;51.01;99547.69;5072913;28;20230;-76
2023/05/07 07:00:46;;;;;;;2.73;1.70;;;;;;;21.69;52.66;99547.06;5072447;28;20203;-77
2023/05/07 07:03:13;;;;;;;2.00;1.40;;;;;;;21.70;52.79;99545.31;5072232;28;20723;-76
2023/05/07 07:05:41;;;;;;;1.90;1.60;;;;;;;21.65;51.63;99550.22;5072354;28;20633;-76
2023/05/07 07:08:10;;;;;;;4.18;1.75;;;;;;;21.53;52.69;99552.38;5072642;28;20300;-76
2023/05/07 07:10:37;;;;;;;2.97;1.67;;;;;;;21.33;51.72;99556.34;5071999;28;20198;-74
2023/05/07 07:13:04;;;;;;;1.63;1.40;;;;;;;21.91;52.94;99544.69;5071784;28;20230;-75
2023/05/07 07:15:30;;;;;;;3.37;1.50;;;;;;;21.73;52.32;99549.34;5071160;28;20195;-75
2023/05/07 07:17:57;;;;;;;2.57;1.50;;;;;;;22.31;52.69;99540.19;5070982;28;20222;-74
2023/05/07 07:20:24;;;;;;;3.70;1.33;;;;;;;22.60;52.03;99545.47;5072349;28;20615;-75
2023/05/07 07:22:51;;;;;;;1.65;1.27;;;;;;;22.80;51.03;99545.75;5072097;28;20215;-76
2023/05/07 07:25:19;;;;;;;1.52;1.42;;;;;;;22.63;48.23;99554.75;5071520;28;20577;-73
2023/05/07 07:27:46;;;;;;;1.98;1.33;;;;;;;21.24;46.17;99552.97;5070215;28;20230;-74
2023/05/07 07:30:13;;;;;;;1.87;1.40;;;;;;;21.76;48.03;99554.19;5071493;28;20707;-75
2023/05/07 07:32:39;;;;;;;1.80;1.27;;;;;;;21.93;49.09;99548.75;5071534;28;20238;-76
2023/05/07 07:35:07;;;;;;;1.30;1.20;;;;;;;22.55;48.54;99560.03;5071502;28;20203;-75
2023/05/07 07:37:34;;;;;;;2.90;1.50;;;;;;;22.46;45.81;99564.50;5071492;28;20203;-76
2023/05/07 07:40:01;;;;;;;2.03;1.45;;;;;;;22.41;45.43;99555.59;5072367;28;20202;-75
2023/05/07 07:42:30;;;;;;;1.70;1.40;;;;;;;22.54;43.79;99547.97;5071413;28;20581;-76
2023/05/07 07:44:57;;;;;;;1.20;1.10;;;;;;;23.40;45.99;99559.63;5071168;28;20771;-75
2023/05/07 07:47:24;;;;;;;1.33;1.23;;;;;;;23.04;44.31;99551.75;5071586;28;20226;-75
2023/05/07 07:49:51;;;;;;;1.20;1.10;;;;;;;22.87;42.46;99556.28;5071600;28;20199;-75
2023/05/07 07:52:18;;;;;;;1.27;1.10;;;;;;;22.77;42.35;99556.53;5071649;28;20608;-76
2023/05/07 07:54:45;;;;;;;1.48;1.17;;;;;;;22.77;42.60;99559.13;5071251;28;20191;-75
2023/05/07 07:57:12;;;;;;;3.33;1.40;;;;;;;23.32;42.62;99558.91;5071335;28;20225;-75
2023/05/07 07:59:42;;;;;;;1.27;1.17;;;;;;;23.69;41.51;99558.75;5071613;28;20666;-75
2023/05/07 08:02:08;;;;;;;1.83;1.25;;;;;;;24.06;40.52;99562.19;5071276;28;20199;-75
2023/05/07 08:04:37;;;;;;;1.75;1.35;;;;;;;24.04;42.04;99558.94;5071318;28;20219;-75
2023/05/07 08:07:04;;;;;;;1.70;1.13;;;;;;;24.18;41.24;99554.66;5071113;28;20217;-74
2023/05/07 08:09:30;;;;;;;1.27;1.10;;;;;;;23.26;42.97;99555.22;5071127;28;20226;-75
2023/05/07 08:11:57;;;;;;;1.20;1.10;;;;;;;24.00;40.92;99555.09;5070719;28;20234;-75
2023/05/07 08:14:24;;;;;;;3.15;1.10;;;;;;;24.34;40.69;99557.00;5070592;28;20219;-75
2023/05/07 08:16:52;;;;;;;1.40;0.90;;;;;;;24.22;40.33;99555.88;5070862;28;20202;-75
2023/05/07 08:19:20;;;;;;;1.38;1.13;;;;;;;24.44;41.46;99548.88;5069560;28;20234;-76
2023/05/07 08:21:47;;;;;;;2.17;1.13;;;;;;;25.05;37.76;99541.22;5070767;28;20210;-75
2023/05/07 08:24:14;;;;;;;1.92;1.10;;;;;;;25.08;36.70;99546.06;5070597;28;20609;-75
2023/05/07 08:26:41;;;;;;;1.08;0.98;;;;;;;25.01;38.21;99545.19;5070775;28;20198;-75
2023/05/07 08:29:08;;;;;;;2.45;1.20;;;;;;;25.58;38.76;99548.50;5070566;28;20218;-76
2023/05/07 08:31:35;;;;;;;1.20;1.10;;;;;;;25.39;37.73;99547.41;5070450;28;20253;-75
2023/05/07 08:34:04;;;;;;;1.35;1.20;;;;;;;25.41;39.11;99550.66;5070511;28;20222;-75
2023/05/07 08:36:31;;;;;;;1.25;1.02;;;;;;;24.49;38.86;99554.31;5070413;28;20686;-76
2023/05/07 08:38:58;;;;;;;1.77;1.10;;;;;;;25.51;35.73;99545.88;5070076;28;20276;-76
2023/05/07 08:41:24;;;;;;;1.27;1.10;;;;;;;26.03;36.37;99548.00;5070548;28;20199;-76
2023/05/07 08:43:52;;;;;;;1.58;1.20;;;;;;;26.24;39.33;99552.25;5070225;28;20710;-76
2023/05/07 08:46:20;;;;;;;1.60;1.20;;;;;;;26.58;35.58;99553.91;5070088;28;20195;-78
2023/05/07 08:48:49;;;;;;;1.48;1.10;;;;;;;25.34;35.63;99541.16;5069160;28;20844;-76
2023/05/07 08:51:19;;;;;;;1.70;1.40;;;;;;;25.32;37.06;99540.56;5069317;28;20596;-76
2023/05/07 08:53:48;;;;;;;2.00;1.33;;;;;;;26.15;35.63;99535.91;5070145;28;20226;-75
2023/05/07 08:56:16;;;;;;;1.23;1.00;;;;;;;26.40;37.64;99534.31;5069621;28;20737;-75
2023/05/07 08:58:43;;;;;;;48.38;14.25;;;;;;;26.92;34.08;99526.59;5069205;28;20320;-76
2023/05/07 09:01:14;;;;;;;1.30;1.10;;;;;;;26.26;32.82;99527.47;5069985;28;20573;-75
2023/05/07 09:03:41;;;;;;;1.75;1.20;;;;;;;25.95;34.55;99525.44;5069795;28;20714;-75
2023/05/07 09:06:08;;;;;;;1.92;1.30;;;;;;;26.30;31.98;99527.88;5070025;28;20195;-77
2023/05/07 09:08:36;;;;;;;1.20;1.10;;;;;;;26.40;31.89;99517.78;5069746;28;20218;-77
2023/05/07 09:11:04;;;;;;;4.70;2.42;;;;;;;26.69;34.23;99527.06;5069666;28;20205;-75
2023/05/07 09:13:31;;;;;;;0.90;0.90;;;;;;;26.03;35.55;99527.06;5070012;28;20238;-75
2023/05/07 09:15:58;;;;;;;2.28;1.23;;;;;;;25.23;34.12;99521.59;5072494;28;20217;-76
2023/05/07 09:18:26;;;;;;;1.20;1.10;;;;;;;25.16;35.02;99531.22;5089571;28;20730;-76
2023/05/07 09:20:53;;;;;;;2.08;1.20;;;;;;;25.36;38.23;99526.06;5089579;28;20251;-76
2023/05/07 09:23:19;;;;;;;0.93;0.85;;;;;;;25.86;35.32;99524.84;5089612;28;20229;-80
2023/05/07 09:25:48;;;;;;;0.90;0.75;;;;;;;25.43;33.79;99519.06;5090203;28;20291;-76
2023/05/07 09:28:14;;;;;;;5.03;2.00;;;;;;;26.09;32.61;99515.75;5089986;28;20218;-78
2023/05/07 09:30:41;;;;;;;39.60;16.27;;;;;;;26.70;35.12;99512.91;5089913;28;20202;-76
2023/05/07 09:33:08;;;;;;;2.38;1.60;;;;;;;26.83;33.35;99512.91;5092217;28;20229;-75
2023/05/07 09:35:35;;;;;;;8.80;3.90;;;;;;;26.16;36.17;99513.97;5094637;28;20202;-77
2023/05/07 09:38:03;;;;;;;1.05;0.95;;;;;;;26.37;34.55;99513.75;5089501;28;20217;-75
2023/05/07 09:40:31;;;;;;;1.42;1.20;;;;;;;26.96;34.62;99511.22;5089639;28;20206;-76
2023/05/07 09:43:10;;;;;;;2.13;1.10;;;;;;;25.54;34.06;99508.03;5089364;28;20282;-78
2023/05/07 09:45:37;;;;;;;2.47;1.35;;;;;;;25.12;35.72;99498.56;5089438;28;20205;-76
2023/05/07 09:48:06;;;;;;;1.60;1.13;;;;;;;25.84;37.92;99497.22;5089113;28;20419;-75
2023/05/07 09:50:37;;;;;;;4.78;2.33;;;;;;;26.64;34.45;99503.25;5089191;28;20574;-76
2023/05/07 09:53:05;;;;;;;2.25;1.65;;;;;;;26.40;36.29;99496.81;5089578;28;20226;-75
2023/05/07 09:55:32;;;;;;;1.13;1.02;;;;;;;26.90;35.66;99501.56;5089468;28;20202;-76
2023/05/07 09:58:02;;;;;;;1.45;1.08;;;;;;;27.10;35.34;99497.06;5089430;28;20230;-76
2023/05/07 10:00:30;;;;;;;1.30;1.20;;;;;;;27.35;34.10;99493.75;5089697;28;20194;-76
2023/05/07 10:03:02;;;;;;;1.20;1.10;;;;;;;27.25;34.71;99495.00;5089724;28;20241;-75
2023/05/07 10:05:29;;;;;;;1.30;1.10;;;;;;;27.40;34.27;99496.53;5089444;28;20201;-75
2023/05/07 10:07:57;;;;;;;1.73;1.25;;;;;;;27.67;34.16;99497.19;5089383;28;20219;-74
2023/05/07 10:10:25;;;;;;;1.30;1.15;;;;;;;27.49;34.77;99495.28;5089723;28;20202;-76
2023/05/07 10:12:52;;;;;;;1.20;1.10;;;;;;;27.35;35.09;99488.50;5089665;28;20234;-76
2023/05/07 10:15:20;;;;;;;1.83;1.30;;;;;;;27.65;32.51;99491.34;5090022;28;20194;-76
2023/05/07 10:17:49;;;;;;;1.52;1.10;;;;;;;26.99;35.60;99489.81;5089351;28;20229;-75
2023/05/07 10:20:16;;;;;;;1.73;1.10;;;;;;;27.18;33.04;99488.97;5089470;28;20194;-75
2023/05/07 10:22:45;;;;;;;2.15;1.30;;;;;;;28.04;32.64;99486.84;5088958;28;20736;-75
2023/05/07 10:25:18;;;;;;;0.98;0.98;;;;;;;28.10;32.92;99486.81;5089256;28;20221;-76
2023/05/07 10:27:47;;;;;;;1.65;1.10;;;;;;;27.89;31.78;99489.78;5089588;28;20604;-76
2023/05/07 10:30:28;;;;;;;1.35;1.13;;;;;;;27.59;34.92;99477.22;5088827;28;20202;-75
2023/05/07 10:32:57;;;;;;;1.40;1.20;;;;;;;26.77;33.03;99479.63;5089003;28;20316;-75
2023/05/07 10:35:27;;;;;;;1.90;0.95;;;;;;;27.15;33.44;99472.81;5089000;28;20272;-76
2023/05/07 10:37:54;;;;;;;1.30;1.20;;;;;;;27.53;34.29;99473.63;5089047;28;20572;-78
2023/05/07 10:40:21;;;;;;;2.45;1.20;;;;;;;27.23;33.76;99465.53;5089302;28;20654;-74
2023/05/07 10:42:55;;;;;;;1.80;1.50;;;;;;;27.30;34.53;99461.03;5089021;28;20222;-74
2023/05/07 10:45:25;;;;;;;2.30;1.02;;;;;;;26.86;33.95;99460.00;5087394;28;20260;-74
2023/05/07 10:48:09;;;;;;;1.45;1.13;;;;;;;27.25;34.34;99452.97;5087863;28;20292;-74
2023/05/07 10:50:36;;;;;;;1.98;1.15;;;;;;;27.58;32.43;99462.50;5068549;28;20233;-75
2023/05/07 10:53:25;;;;;;;1.25;1.10;;;;;;;27.59;32.60;99453.59;5068405;28;20229;-75
2023/05/07 10:56:13;;;;;;;1.67;1.10;;;;;;;27.59;33.34;99453.59;5068910;28;20205;-75
2023/05/07 10:58:39;;;;;;;1.65;1.13;;;;;;;27.24;33.84;99446.13;5068981;28;20227;-74
2023/05/07 11:01:08;;;;;;;1.77;1.23;;;;;;;27.57;31.66;99444.31;5069192;28;20592;-75
2023/05/07 11:03:34;;;;;;;1.15;1.05;;;;;;;28.18;31.14;99449.69;5072452;28;20222;-75
2023/05/07 11:06:12;;;;;;;1.42;1.10;;;;;;;27.93;32.08;99454.19;5072460;28;20207;-74
2023/05/07 11:08:55;;;;;;;2.00;1.20;;;;;;;27.63;33.10;99449.50;5072434;28;20219;-74
2023/05/07 11:11:46;;;;;;;2.47;1.02;;;;;;;26.90;31.28;99449.88;5072234;28;20294;-75
2023/05/07 11:14:15;;;;;;;1.20;1.10;;;;;;;26.06;34.47;99432.31;5072277;28;20657;-75
2023/05/07 11:16:44;;;;;;;2.20;1.42;;;;;;;26.99;34.27;99432.09;5071666;28;20195;-75
2023/05/07 11:19:11;;;;;;;1.33;1.15;;;;;;;26.60;33.33;99431.25;5072131;28;20593;-74
2023/05/07 11:21:39;;;;;;;1.40;1.15;;;;;;;26.70;32.67;99434.22;5086558;28;20205;-75
2023/05/07 11:24:07;;;;;;;1.15;1.05;;;;;;;27.23;32.82;99428.78;5092118;28;20225;-74
2023/05/07 11:26:48;;;;;;;0.90;0.88;;;;;;;27.28;33.97;99425.50;5092279;28;20777;-75
2023/05/07 11:29:17;;;;;;;1.50;1.30;;;;;;;27.49;35.91;99429.63;5092425;28;20653;-75
2023/05/07 11:31:49;;;;;;;1.75;1.38;;;;;;;27.11;33.60;99427.78;5092180;28;20194;-75
2023/05/07 11:34:21;;;;;;;1.70;1.23;;;;;;;27.29;33.93;99427.94;5092172;28;20705;-75
2023/05/07 11:36:49;;;;;;;1.63;1.10;;;;;;;26.93;32.12;99417.19;5092343;28;20198;-75